sensor_id;sensor_type;location;lat;lon;timestamp;temperature;humidity
7307;DHT22;3694;48.732;9.248;2023-07-31T00:00:38;13.30;99.90
7307;DHT22;3694;48.732;9.248;2023-07-31T00:03:03;13.20;99.90
7307;DHT22;3694;48.732;9.248;2023-07-31T00:05:29;13.00;99.90
7307;DHT22;3694;48.732;9.248;2023-07-31T00:07:54;13.00;99.90
7307;DHT22;3694;48.732;9.248;2023-07-31T00:10:20;12.90;99.90
7307;DHT22;3694;48.732;9.248;2023-07-31T00:12:46;12.90;99.90
7307;DHT22;3694;48.732;9.248;2023-07-31T00:15:13;12.90;99.90
7307;DHT22;3694;48.732;9.248;2023-07-31T00:17:39;12.80;99.90
7307;DHT22;3694;48.732;9.248;2023-07-31T00:20:05;12.70;99.90
7307;DHT22;3694;48.732;9.248;2023-07-31T00:22:31;12.70;99.90
7307;DHT22;3694;48.732;9.248;2023-07-31T00:24:57;12.80;99.90
7307;DHT22;3694;48.732;9.248;2023-07-31T00:27:23;12.70;99.90
7307;DHT22;3694;48.732;9.248;2023-07-31T00:29:48;12.70;99.90
7307;DHT22;3694;48.732;9.248;2023-07-31T00:32:14;12.70;99.90
7307;DHT22;3694;48.732;9.248;2023-07-31T00:34:39;12.70;99.90
7307;DHT22;3694;48.732;9.248;2023-07-31T00:37:05;12.70;99.90
7307;DHT22;3694;48.732;9.248;2023-07-31T00:39:34;13.00;99.90
7307;DHT22;3694;48.732;9.248;2023-07-31T00:41:59;12.80;99.90
7307;DHT22;3694;48.732;9.248;2023-07-31T00:44:25;12.90;99.90
7307;DHT22;3694;48.732;9.248;2023-07-31T00:46:51;12.90;99.90
7307;DHT22;3694;48.732;9.248;2023-07-31T00:49:16;13.00;99.90
7307;DHT22;3694;48.732;9.248;2023-07-31T00:51:42;13.10;99.90
7307;DHT22;3694;48.732;9.248;2023-07-31T00:54:08;13.20;99.90
7307;DHT22;3694;48.732;9.248;2023-07-31T00:56:33;13.20;99.90
7307;DHT22;3694;48.732;9.248;2023-07-31T00:58:59;13.20;99.90
7307;DHT22;3694;48.732;9.248;2023-07-31T01:01:24;13.20;99.90
7307;DHT22;3694;48.732;9.248;2023-07-31T01:03:52;13.20;99.90
7307;DHT22;3694;48.732;9.248;2023-07-31T01:09:36;13.20;99.90
7307;DHT22;3694;48.732;9.248;2023-07-31T01:12:07;13.20;99.90
7307;DHT22;3694;48.732;9.248;2023-07-31T01:14:34;13.30;99.90
7307;DHT22;3694;48.732;9.248;2023-07-31T01:17:00;13.40;99.90
7307;DHT22;3694;48.732;9.248;2023-07-31T01:19:26;13.40;99.90
7307;DHT22;3694;48.732;9.248;2023-07-31T01:22:35;13.40;99.90
7307;DHT22;3694;48.732;9.248;2023-07-31T01:28:09;13.40;99.90
7307;DHT22;3694;48.732;9.248;2023-07-31T01:30:41;13.40;99.90
7307;DHT22;3694;48.732;9.248;2023-07-31T01:33:09;13.40;99.90
7307;DHT22;3694;48.732;9.248;2023-07-31T01:35:36;13.40;99.90
7307;DHT22;3694;48.732;9.248;2023-07-31T01:38:02;13.50;99.90
7307;DHT22;3694;48.732;9.248;2023-07-31T01:40:27;13.50;99.90
7307;DHT22;3694;48.732;9.248;2023-07-31T01:42:53;13.40;99.90
7307;DHT22;3694;48.732;9.248;2023-07-31T01:45:18;13.60;99.90
7307;DHT22;3694;48.732;9.248;2023-07-31T01:47:44;13.50;99.90
7307;DHT22;3694;48.732;9.248;2023-07-31T01:50:09;13.40;99.90
7307;DHT22;3694;48.732;9.248;2023-07-31T01:52:35;13.40;99.90
7307;DHT22;3694;48.732;9.248;2023-07-31T01:55:01;13.40;99.90
7307;DHT22;3694;48.732;9.248;2023-07-31T01:57:26;13.40;99.90
7307;DHT22;3694;48.732;9.248;2023-07-31T01:59:52;13.40;99.90
7307;DHT22;3694;48.732;9.248;2023-07-31T02:02:19;13.40;99.90
7307;DHT22;3694;48.732;9.248;2023-07-31T02:04:45;13.40;99.90
7307;DHT22;3694;48.732;9.248;2023-07-31T02:07:10;13.30;99.90
7307;DHT22;3694;48.732;9.248;2023-07-31T02:09:36;13.20;99.90
7307;DHT22;3694;48.732;9.248;2023-07-31T02:12:02;13.20;99.90
7307;DHT22;3694;48.732;9.248;2023-07-31T02:14:27;13.10;99.90
7307;DHT22;3694;48.732;9.248;2023-07-31T02:16:53;13.10;99.90
7307;DHT22;3694;48.732;9.248;2023-07-31T02:19:18;13.00;99.90
7307;DHT22;3694;48.732;9.248;2023-07-31T02:21:44;13.00;99.90
7307;DHT22;3694;48.732;9.248;2023-07-31T02:24:10;13.00;99.90
7307;DHT22;3694;48.732;9.248;2023-07-31T02:26:35;12.90;99.90
7307;DHT22;3694;48.732;9.248;2023-07-31T02:29:01;12.90;99.90
7307;DHT22;3694;48.732;9.248;2023-07-31T02:31:26;12.80;99.90
7307;DHT22;3694;48.732;9.248;2023-07-31T02:33:52;12.80;99.90
7307;DHT22;3694;48.732;9.248;2023-07-31T02:36:18;12.70;99.90
7307;DHT22;3694;48.732;9.248;2023-07-31T02:38:43;12.80;99.90
7307;DHT22;3694;48.732;9.248;2023-07-31T02:41:09;12.70;99.90
7307;DHT22;3694;48.732;9.248;2023-07-31T02:43:34;12.70;99.90
7307;DHT22;3694;48.732;9.248;2023-07-31T02:46:00;12.70;99.90
7307;DHT22;3694;48.732;9.248;2023-07-31T02:48:25;12.70;99.90
7307;DHT22;3694;48.732;9.248;2023-07-31T02:50:51;12.70;99.90
7307;DHT22;3694;48.732;9.248;2023-07-31T02:53:16;12.70;99.90
7307;DHT22;3694;48.732;9.248;2023-07-31T02:55:42;12.70;99.90
7307;DHT22;3694;48.732;9.248;2023-07-31T02:58:07;12.60;99.90
7307;DHT22;3694;48.732;9.248;2023-07-31T03:00:33;12.60;99.90
7307;DHT22;3694;48.732;9.248;2023-07-31T03:02:58;12.50;99.90
7307;DHT22;3694;48.732;9.248;2023-07-31T03:05:24;12.50;99.90
7307;DHT22;3694;48.732;9.248;2023-07-31T03:07:49;12.40;99.90
7307;DHT22;3694;48.732;9.248;2023-07-31T03:10:15;12.40;99.90
7307;DHT22;3694;48.732;9.248;2023-07-31T03:12:41;12.40;99.90
7307;DHT22;3694;48.732;9.248;2023-07-31T03:15:07;12.40;99.90
7307;DHT22;3694;48.732;9.248;2023-07-31T03:17:32;12.40;99.90
7307;DHT22;3694;48.732;9.248;2023-07-31T03:19:58;12.50;99.90
7307;DHT22;3694;48.732;9.248;2023-07-31T03:22:23;12.50;99.90
7307;DHT22;3694;48.732;9.248;2023-07-31T03:24:49;12.50;99.90
7307;DHT22;3694;48.732;9.248;2023-07-31T03:27:14;12.50;99.90
7307;DHT22;3694;48.732;9.248;2023-07-31T03:29:40;12.50;99.90
7307;DHT22;3694;48.732;9.248;2023-07-31T03:32:06;12.60;99.90
7307;DHT22;3694;48.732;9.248;2023-07-31T03:34:31;12.60;99.90
7307;DHT22;3694;48.732;9.248;2023-07-31T03:36:58;12.70;99.90
7307;DHT22;3694;48.732;9.248;2023-07-31T03:39:23;12.70;99.90
7307;DHT22;3694;48.732;9.248;2023-07-31T03:41:49;12.80;99.90
7307;DHT22;3694;48.732;9.248;2023-07-31T03:44:17;12.80;99.90
7307;DHT22;3694;48.732;9.248;2023-07-31T03:46:42;12.80;99.90
7307;DHT22;3694;48.732;9.248;2023-07-31T03:49:08;12.80;99.90
7307;DHT22;3694;48.732;9.248;2023-07-31T03:51:33;12.70;99.90
7307;DHT22;3694;48.732;9.248;2023-07-31T03:53:59;12.70;99.90
7307;DHT22;3694;48.732;9.248;2023-07-31T03:56:25;12.70;99.90
7307;DHT22;3694;48.732;9.248;2023-07-31T03:58:50;12.70;99.90
7307;DHT22;3694;48.732;9.248;2023-07-31T04:01:16;12.70;99.90
7307;DHT22;3694;48.732;9.248;2023-07-31T04:03:41;12.60;99.90
7307;DHT22;3694;48.732;9.248;2023-07-31T04:06:07;12.60;99.90
7307;DHT22;3694;48.732;9.248;2023-07-31T04:08:33;12.60;99.90
7307;DHT22;3694;48.732;9.248;2023-07-31T04:10:58;12.70;99.90
7307;DHT22;3694;48.732;9.248;2023-07-31T04:13:24;12.80;99.90
7307;DHT22;3694;48.732;9.248;2023-07-31T04:15:50;13.00;99.90
7307;DHT22;3694;48.732;9.248;2023-07-31T04:18:16;13.20;99.90
7307;DHT22;3694;48.732;9.248;2023-07-31T04:20:41;13.40;99.90
7307;DHT22;3694;48.732;9.248;2023-07-31T04:23:07;13.60;99.90
7307;DHT22;3694;48.732;9.248;2023-07-31T04:25:32;13.70;99.90
7307;DHT22;3694;48.732;9.248;2023-07-31T04:28:00;13.90;99.90
7307;DHT22;3694;48.732;9.248;2023-07-31T04:30:26;14.20;99.90
7307;DHT22;3694;48.732;9.248;2023-07-31T04:32:51;14.10;99.90
7307;DHT22;3694;48.732;9.248;2023-07-31T04:35:17;14.20;99.90
7307;DHT22;3694;48.732;9.248;2023-07-31T04:37:42;14.20;99.90
7307;DHT22;3694;48.732;9.248;2023-07-31T04:40:08;14.30;99.90
7307;DHT22;3694;48.732;9.248;2023-07-31T04:42:34;14.40;99.90
7307;DHT22;3694;48.732;9.248;2023-07-31T04:44:59;14.50;99.90
7307;DHT22;3694;48.732;9.248;2023-07-31T04:47:25;14.50;99.90
7307;DHT22;3694;48.732;9.248;2023-07-31T04:49:51;14.60;99.90
7307;DHT22;3694;48.732;9.248;2023-07-31T04:52:16;14.60;99.90
7307;DHT22;3694;48.732;9.248;2023-07-31T04:54:42;14.70;99.90
7307;DHT22;3694;48.732;9.248;2023-07-31T04:57:07;14.70;99.90
7307;DHT22;3694;48.732;9.248;2023-07-31T04:59:33;14.80;99.90
7307;DHT22;3694;48.732;9.248;2023-07-31T05:01:58;14.90;99.90
7307;DHT22;3694;48.732;9.248;2023-07-31T05:04:24;15.00;99.90
7307;DHT22;3694;48.732;9.248;2023-07-31T05:06:49;15.10;99.90
7307;DHT22;3694;48.732;9.248;2023-07-31T05:09:15;15.10;99.90
7307;DHT22;3694;48.732;9.248;2023-07-31T05:11:41;15.20;99.90
7307;DHT22;3694;48.732;9.248;2023-07-31T05:14:08;15.30;99.90
7307;DHT22;3694;48.732;9.248;2023-07-31T05:16:34;15.10;99.90
7307;DHT22;3694;48.732;9.248;2023-07-31T05:18:59;15.20;99.90
7307;DHT22;3694;48.732;9.248;2023-07-31T05:21:25;15.40;99.90
7307;DHT22;3694;48.732;9.248;2023-07-31T05:23:50;15.40;99.90
7307;DHT22;3694;48.732;9.248;2023-07-31T05:26:16;15.50;99.90
7307;DHT22;3694;48.732;9.248;2023-07-31T05:28:41;15.60;99.90
7307;DHT22;3694;48.732;9.248;2023-07-31T05:31:07;15.60;99.90
7307;DHT22;3694;48.732;9.248;2023-07-31T05:33:33;15.70;99.90
7307;DHT22;3694;48.732;9.248;2023-07-31T05:35:58;15.60;99.90
7307;DHT22;3694;48.732;9.248;2023-07-31T05:38:24;15.60;99.90
7307;DHT22;3694;48.732;9.248;2023-07-31T05:40:49;15.80;99.90
7307;DHT22;3694;48.732;9.248;2023-07-31T05:43:15;16.10;99.90
7307;DHT22;3694;48.732;9.248;2023-07-31T05:45:42;16.40;99.90
7307;DHT22;3694;48.732;9.248;2023-07-31T05:48:07;16.80;99.90
7307;DHT22;3694;48.732;9.248;2023-07-31T05:50:33;17.30;99.70
7307;DHT22;3694;48.732;9.248;2023-07-31T05:52:59;17.90;98.90
7307;DHT22;3694;48.732;9.248;2023-07-31T05:55:25;18.50;97.90
7307;DHT22;3694;48.732;9.248;2023-07-31T05:57:52;19.10;96.60
7307;DHT22;3694;48.732;9.248;2023-07-31T06:00:18;19.80;95.80
7307;DHT22;3694;48.732;9.248;2023-07-31T06:02:43;20.00;94.70
7307;DHT22;3694;48.732;9.248;2023-07-31T06:05:09;19.60;94.30
7307;DHT22;3694;48.732;9.248;2023-07-31T06:07:35;19.30;95.00
7307;DHT22;3694;48.732;9.248;2023-07-31T06:10:01;19.30;95.10
7307;DHT22;3694;48.732;9.248;2023-07-31T06:12:28;19.50;94.80
7307;DHT22;3694;48.732;9.248;2023-07-31T06:14:54;19.70;94.70
7307;DHT22;3694;48.732;9.248;2023-07-31T06:17:20;20.40;94.20
7307;DHT22;3694;48.732;9.248;2023-07-31T06:19:46;21.30;92.80
7307;DHT22;3694;48.732;9.248;2023-07-31T06:22:12;21.40;91.20
7307;DHT22;3694;48.732;9.248;2023-07-31T06:24:38;21.30;90.60
7307;DHT22;3694;48.732;9.248;2023-07-31T06:27:03;21.30;90.20
7307;DHT22;3694;48.732;9.248;2023-07-31T06:29:29;21.60;89.60
7307;DHT22;3694;48.732;9.248;2023-07-31T06:31:55;21.30;89.80
7307;DHT22;3694;48.732;9.248;2023-07-31T06:34:21;21.40;90.00
7307;DHT22;3694;48.732;9.248;2023-07-31T06:36:46;21.60;89.70
7307;DHT22;3694;48.732;9.248;2023-07-31T06:39:12;22.00;87.80
7307;DHT22;3694;48.732;9.248;2023-07-31T06:41:38;22.80;85.20
7307;DHT22;3694;48.732;9.248;2023-07-31T06:44:04;23.90;85.80
7307;DHT22;3694;48.732;9.248;2023-07-31T06:46:29;24.70;80.90
7307;DHT22;3694;48.732;9.248;2023-07-31T06:48:55;25.00;78.10
7307;DHT22;3694;48.732;9.248;2023-07-31T06:51:21;24.80;77.40
7307;DHT22;3694;48.732;9.248;2023-07-31T06:53:46;24.60;75.70
7307;DHT22;3694;48.732;9.248;2023-07-31T06:56:12;24.00;75.20
7307;DHT22;3694;48.732;9.248;2023-07-31T06:58:38;23.50;76.50
7307;DHT22;3694;48.732;9.248;2023-07-31T07:01:04;23.60;75.70
7307;DHT22;3694;48.732;9.248;2023-07-31T07:03:29;24.00;77.30
7307;DHT22;3694;48.732;9.248;2023-07-31T07:05:55;24.10;77.00
7307;DHT22;3694;48.732;9.248;2023-07-31T07:08:20;24.10;75.60
7307;DHT22;3694;48.732;9.248;2023-07-31T07:10:47;24.50;74.70
7307;DHT22;3694;48.732;9.248;2023-07-31T07:13:13;24.90;74.20
7307;DHT22;3694;48.732;9.248;2023-07-31T07:15:39;24.90;73.50
7307;DHT22;3694;48.732;9.248;2023-07-31T07:18:05;24.40;72.80
7307;DHT22;3694;48.732;9.248;2023-07-31T07:20:30;23.90;72.70
7307;DHT22;3694;48.732;9.248;2023-07-31T07:22:56;23.60;74.00
7307;DHT22;3694;48.732;9.248;2023-07-31T07:25:22;24.00;74.00
7307;DHT22;3694;48.732;9.248;2023-07-31T07:27:47;24.30;75.10
7307;DHT22;3694;48.732;9.248;2023-07-31T07:30:13;24.40;74.10
7307;DHT22;3694;48.732;9.248;2023-07-31T07:32:39;24.30;73.50
7307;DHT22;3694;48.732;9.248;2023-07-31T07:35:06;24.60;73.00
7307;DHT22;3694;48.732;9.248;2023-07-31T07:37:31;24.90;72.10
7307;DHT22;3694;48.732;9.248;2023-07-31T07:39:57;24.80;73.30
7307;DHT22;3694;48.732;9.248;2023-07-31T07:42:23;24.30;72.80
7307;DHT22;3694;48.732;9.248;2023-07-31T07:44:48;23.90;72.30
7307;DHT22;3694;48.732;9.248;2023-07-31T07:47:14;23.80;75.10
7307;DHT22;3694;48.732;9.248;2023-07-31T07:49:39;23.70;72.40
7307;DHT22;3694;48.732;9.248;2023-07-31T07:52:05;23.60;73.50
7307;DHT22;3694;48.732;9.248;2023-07-31T07:54:31;23.50;71.20
7307;DHT22;3694;48.732;9.248;2023-07-31T07:56:57;23.20;71.90
7307;DHT22;3694;48.732;9.248;2023-07-31T07:59:23;23.40;74.00
7307;DHT22;3694;48.732;9.248;2023-07-31T08:01:49;24.00;73.20
7307;DHT22;3694;48.732;9.248;2023-07-31T08:04:14;25.10;72.20
7307;DHT22;3694;48.732;9.248;2023-07-31T08:06:40;26.10;71.70
7307;DHT22;3694;48.732;9.248;2023-07-31T08:09:05;26.60;68.40
7307;DHT22;3694;48.732;9.248;2023-07-31T08:11:32;26.50;67.40
7307;DHT22;3694;48.732;9.248;2023-07-31T08:13:58;26.40;67.70
7307;DHT22;3694;48.732;9.248;2023-07-31T08:16:23;25.70;67.00
7307;DHT22;3694;48.732;9.248;2023-07-31T08:18:49;24.70;68.90
7307;DHT22;3694;48.732;9.248;2023-07-31T08:21:14;24.30;69.90
7307;DHT22;3694;48.732;9.248;2023-07-31T08:23:40;24.60;70.50
7307;DHT22;3694;48.732;9.248;2023-07-31T08:26:06;25.10;72.70
7307;DHT22;3694;48.732;9.248;2023-07-31T08:28:31;25.80;70.20
7307;DHT22;3694;48.732;9.248;2023-07-31T08:30:57;26.20;68.30
7307;DHT22;3694;48.732;9.248;2023-07-31T08:33:22;26.70;68.50
7307;DHT22;3694;48.732;9.248;2023-07-31T08:35:48;26.90;67.20
7307;DHT22;3694;48.732;9.248;2023-07-31T08:38:14;26.60;66.00
7307;DHT22;3694;48.732;9.248;2023-07-31T08:40:39;26.40;65.50
7307;DHT22;3694;48.732;9.248;2023-07-31T08:43:05;25.90;67.40
7307;DHT22;3694;48.732;9.248;2023-07-31T08:45:32;26.00;65.20
7307;DHT22;3694;48.732;9.248;2023-07-31T08:47:59;26.20;65.10
7307;DHT22;3694;48.732;9.248;2023-07-31T08:50:24;26.60;65.70
7307;DHT22;3694;48.732;9.248;2023-07-31T08:52:51;27.10;66.20
7307;DHT22;3694;48.732;9.248;2023-07-31T08:55:17;27.60;65.50
7307;DHT22;3694;48.732;9.248;2023-07-31T08:57:49;27.50;64.40
7307;DHT22;3694;48.732;9.248;2023-07-31T09:00:16;26.80;63.70
7307;DHT22;3694;48.732;9.248;2023-07-31T09:02:46;25.80;64.30
7307;DHT22;3694;48.732;9.248;2023-07-31T09:05:12;26.60;65.50
7307;DHT22;3694;48.732;9.248;2023-07-31T09:07:38;27.00;66.10
7307;DHT22;3694;48.732;9.248;2023-07-31T09:10:04;27.20;64.20
7307;DHT22;3694;48.732;9.248;2023-07-31T09:12:31;27.40;64.50
7307;DHT22;3694;48.732;9.248;2023-07-31T09:14:57;26.80;63.40
7307;DHT22;3694;48.732;9.248;2023-07-31T09:17:34;26.40;63.50
7307;DHT22;3694;48.732;9.248;2023-07-31T09:20:19;25.80;66.20
7307;DHT22;3694;48.732;9.248;2023-07-31T09:22:45;26.00;64.70
7307;DHT22;3694;48.732;9.248;2023-07-31T09:30:20;25.70;64.70
7307;DHT22;3694;48.732;9.248;2023-07-31T09:32:47;24.70;64.90
7307;DHT22;3694;48.732;9.248;2023-07-31T09:35:42;24.40;66.00
7307;DHT22;3694;48.732;9.248;2023-07-31T09:38:15;24.70;65.90
7307;DHT22;3694;48.732;9.248;2023-07-31T09:40:42;24.90;66.50
7307;DHT22;3694;48.732;9.248;2023-07-31T09:43:27;24.80;66.70
7307;DHT22;3694;48.732;9.248;2023-07-31T09:45:56;24.70;66.10
7307;DHT22;3694;48.732;9.248;2023-07-31T09:48:23;24.60;65.30
7307;DHT22;3694;48.732;9.248;2023-07-31T09:50:51;24.30;66.40
7307;DHT22;3694;48.732;9.248;2023-07-31T09:53:17;24.30;66.70
7307;DHT22;3694;48.732;9.248;2023-07-31T09:55:43;24.20;67.00
7307;DHT22;3694;48.732;9.248;2023-07-31T09:58:10;24.00;68.30
7307;DHT22;3694;48.732;9.248;2023-07-31T10:00:36;23.90;68.60
7307;DHT22;3694;48.732;9.248;2023-07-31T10:03:06;24.10;68.00
7307;DHT22;3694;48.732;9.248;2023-07-31T10:05:45;24.20;67.80
7307;DHT22;3694;48.732;9.248;2023-07-31T10:08:15;24.30;66.80
7307;DHT22;3694;48.732;9.248;2023-07-31T10:10:44;24.50;67.00
7307;DHT22;3694;48.732;9.248;2023-07-31T10:13:10;24.20;67.40
7307;DHT22;3694;48.732;9.248;2023-07-31T10:15:36;24.30;68.30
7307;DHT22;3694;48.732;9.248;2023-07-31T10:18:02;24.40;68.30
7307;DHT22;3694;48.732;9.248;2023-07-31T10:20:31;24.50;68.00
7307;DHT22;3694;48.732;9.248;2023-07-31T10:22:57;24.60;68.90
7307;DHT22;3694;48.732;9.248;2023-07-31T10:25:25;25.10;68.20
7307;DHT22;3694;48.732;9.248;2023-07-31T10:27:53;25.00;67.40
7307;DHT22;3694;48.732;9.248;2023-07-31T10:30:22;25.00;67.80
7307;DHT22;3694;48.732;9.248;2023-07-31T10:32:51;24.70;65.00
7307;DHT22;3694;48.732;9.248;2023-07-31T10:35:18;24.60;64.50
7307;DHT22;3694;48.732;9.248;2023-07-31T10:37:44;24.50;65.30
7307;DHT22;3694;48.732;9.248;2023-07-31T10:40:12;24.80;66.40
7307;DHT22;3694;48.732;9.248;2023-07-31T10:42:50;25.30;65.50
7307;DHT22;3694;48.732;9.248;2023-07-31T10:45:37;25.50;65.50
7307;DHT22;3694;48.732;9.248;2023-07-31T10:48:12;25.70;65.70
7307;DHT22;3694;48.732;9.248;2023-07-31T10:50:46;25.30;64.90
7307;DHT22;3694;48.732;9.248;2023-07-31T10:53:29;24.70;65.60
7307;DHT22;3694;48.732;9.248;2023-07-31T10:56:03;24.80;66.80
7307;DHT22;3694;48.732;9.248;2023-07-31T10:58:30;25.30;66.90
7307;DHT22;3694;48.732;9.248;2023-07-31T11:00:58;25.90;66.30
7307;DHT22;3694;48.732;9.248;2023-07-31T11:03:45;26.20;65.40
7307;DHT22;3694;48.732;9.248;2023-07-31T11:06:11;25.90;64.10
7307;DHT22;3694;48.732;9.248;2023-07-31T11:08:43;25.80;64.50
7307;DHT22;3694;48.732;9.248;2023-07-31T11:11:11;25.40;63.90
7307;DHT22;3694;48.732;9.248;2023-07-31T11:13:42;24.90;64.30
7307;DHT22;3694;48.732;9.248;2023-07-31T11:16:10;25.00;66.00
7307;DHT22;3694;48.732;9.248;2023-07-31T11:18:38;25.50;65.00
7307;DHT22;3694;48.732;9.248;2023-07-31T11:21:04;25.50;63.90
7307;DHT22;3694;48.732;9.248;2023-07-31T11:23:30;25.70;64.60
7307;DHT22;3694;48.732;9.248;2023-07-31T11:25:59;26.10;65.00
7307;DHT22;3694;48.732;9.248;2023-07-31T11:28:25;26.30;62.70
7307;DHT22;3694;48.732;9.248;2023-07-31T11:30:51;25.80;64.00
7307;DHT22;3694;48.732;9.248;2023-07-31T11:33:17;26.10;63.80
7307;DHT22;3694;48.732;9.248;2023-07-31T11:35:47;25.60;64.20
7307;DHT22;3694;48.732;9.248;2023-07-31T11:38:29;25.30;63.30
7307;DHT22;3694;48.732;9.248;2023-07-31T11:41:00;24.90;64.70
7307;DHT22;3694;48.732;9.248;2023-07-31T11:43:28;24.90;65.60
7307;DHT22;3694;48.732;9.248;2023-07-31T11:45:58;24.60;65.70
7307;DHT22;3694;48.732;9.248;2023-07-31T11:50:50;24.60;66.10
7307;DHT22;3694;48.732;9.248;2023-07-31T11:53:19;24.40;65.70
7307;DHT22;3694;48.732;9.248;2023-07-31T11:55:46;24.40;66.40
7307;DHT22;3694;48.732;9.248;2023-07-31T11:58:13;24.20;65.70
7307;DHT22;3694;48.732;9.248;2023-07-31T12:00:40;24.40;66.00
7307;DHT22;3694;48.732;9.248;2023-07-31T12:03:06;24.40;66.00
7307;DHT22;3694;48.732;9.248;2023-07-31T12:05:32;24.20;66.20
7307;DHT22;3694;48.732;9.248;2023-07-31T12:07:57;24.10;65.80
7307;DHT22;3694;48.732;9.248;2023-07-31T12:13:25;24.10;66.90
7307;DHT22;3694;48.732;9.248;2023-07-31T12:15:56;24.00;67.00
7307;DHT22;3694;48.732;9.248;2023-07-31T12:18:23;24.10;67.90
7307;DHT22;3694;48.732;9.248;2023-07-31T12:21:03;24.20;67.10
7307;DHT22;3694;48.732;9.248;2023-07-31T12:23:31;24.10;67.00
7307;DHT22;3694;48.732;9.248;2023-07-31T12:29:01;23.90;68.70
7307;DHT22;3694;48.732;9.248;2023-07-31T12:31:28;23.90;67.20
7307;DHT22;3694;48.732;9.248;2023-07-31T12:33:55;23.90;67.20
7307;DHT22;3694;48.732;9.248;2023-07-31T12:36:23;24.30;68.70
7307;DHT22;3694;48.732;9.248;2023-07-31T12:38:52;24.50;68.00
7307;DHT22;3694;48.732;9.248;2023-07-31T12:41:18;24.40;67.00
7307;DHT22;3694;48.732;9.248;2023-07-31T12:43:44;24.30;68.80
7307;DHT22;3694;48.732;9.248;2023-07-31T12:46:10;24.00;67.50
7307;DHT22;3694;48.732;9.248;2023-07-31T12:48:37;24.00;68.00
7307;DHT22;3694;48.732;9.248;2023-07-31T12:51:03;23.90;68.30
7307;DHT22;3694;48.732;9.248;2023-07-31T12:53:29;23.60;68.20
7307;DHT22;3694;48.732;9.248;2023-07-31T12:55:55;23.40;68.20
7307;DHT22;3694;48.732;9.248;2023-07-31T12:58:21;23.20;68.30
7307;DHT22;3694;48.732;9.248;2023-07-31T13:00:47;23.20;69.00
7307;DHT22;3694;48.732;9.248;2023-07-31T13:03:12;23.00;69.40
7307;DHT22;3694;48.732;9.248;2023-07-31T13:05:38;22.90;68.70
7307;DHT22;3694;48.732;9.248;2023-07-31T13:08:04;23.00;69.50
7307;DHT22;3694;48.732;9.248;2023-07-31T13:10:29;23.40;71.20
7307;DHT22;3694;48.732;9.248;2023-07-31T13:12:55;23.50;69.00
7307;DHT22;3694;48.732;9.248;2023-07-31T13:15:21;23.50;69.10
7307;DHT22;3694;48.732;9.248;2023-07-31T13:17:46;23.50;68.30
7307;DHT22;3694;48.732;9.248;2023-07-31T13:20:12;23.20;69.00
7307;DHT22;3694;48.732;9.248;2023-07-31T13:22:38;23.20;69.00
7307;DHT22;3694;48.732;9.248;2023-07-31T13:25:04;23.30;68.90
7307;DHT22;3694;48.732;9.248;2023-07-31T13:27:30;23.30;68.80
7307;DHT22;3694;48.732;9.248;2023-07-31T13:29:56;23.60;68.40
7307;DHT22;3694;48.732;9.248;2023-07-31T13:32:21;23.70;68.50
7307;DHT22;3694;48.732;9.248;2023-07-31T13:34:47;23.80;67.70
7307;DHT22;3694;48.732;9.248;2023-07-31T13:37:13;24.20;69.20
7307;DHT22;3694;48.732;9.248;2023-07-31T13:39:40;24.50;68.20
7307;DHT22;3694;48.732;9.248;2023-07-31T13:42:07;24.50;67.00
7307;DHT22;3694;48.732;9.248;2023-07-31T13:44:36;24.50;67.30
7307;DHT22;3694;48.732;9.248;2023-07-31T13:47:02;24.50;66.80
7307;DHT22;3694;48.732;9.248;2023-07-31T13:49:29;24.20;66.60
7307;DHT22;3694;48.732;9.248;2023-07-31T13:51:55;24.10;67.80
7307;DHT22;3694;48.732;9.248;2023-07-31T13:54:22;24.00;67.90
7307;DHT22;3694;48.732;9.248;2023-07-31T13:56:48;24.10;68.40
7307;DHT22;3694;48.732;9.248;2023-07-31T13:59:13;24.30;68.10
7307;DHT22;3694;48.732;9.248;2023-07-31T14:01:40;24.70;68.30
7307;DHT22;3694;48.732;9.248;2023-07-31T14:04:06;24.60;68.10
7307;DHT22;3694;48.732;9.248;2023-07-31T14:06:31;24.50;67.70
7307;DHT22;3694;48.732;9.248;2023-07-31T14:08:57;24.60;69.00
7307;DHT22;3694;48.732;9.248;2023-07-31T14:11:23;24.60;68.20
7307;DHT22;3694;48.732;9.248;2023-07-31T14:13:50;24.60;69.60
7307;DHT22;3694;48.732;9.248;2023-07-31T14:16:15;24.70;68.80
7307;DHT22;3694;48.732;9.248;2023-07-31T14:18:41;24.60;68.80
7307;DHT22;3694;48.732;9.248;2023-07-31T14:21:07;24.40;68.70
7307;DHT22;3694;48.732;9.248;2023-07-31T14:23:34;24.30;69.10
7307;DHT22;3694;48.732;9.248;2023-07-31T14:25:59;24.10;68.70
7307;DHT22;3694;48.732;9.248;2023-07-31T14:28:25;24.00;68.90
7307;DHT22;3694;48.732;9.248;2023-07-31T14:30:50;23.90;69.10
7307;DHT22;3694;48.732;9.248;2023-07-31T14:33:16;23.80;69.60
7307;DHT22;3694;48.732;9.248;2023-07-31T14:35:42;23.90;71.00
7307;DHT22;3694;48.732;9.248;2023-07-31T14:38:07;23.90;69.60
7307;DHT22;3694;48.732;9.248;2023-07-31T14:40:33;24.00;69.70
7307;DHT22;3694;48.732;9.248;2023-07-31T14:42:58;23.90;70.30
7307;DHT22;3694;48.732;9.248;2023-07-31T14:45:24;23.70;69.20
7307;DHT22;3694;48.732;9.248;2023-07-31T14:47:49;23.70;70.10
7307;DHT22;3694;48.732;9.248;2023-07-31T14:50:15;23.80;69.10
7307;DHT22;3694;48.732;9.248;2023-07-31T14:52:41;24.10;70.10
7307;DHT22;3694;48.732;9.248;2023-07-31T14:55:07;24.50;68.70
7307;DHT22;3694;48.732;9.248;2023-07-31T14:57:34;24.70;68.90
7307;DHT22;3694;48.732;9.248;2023-07-31T14:59:59;24.70;67.30
7307;DHT22;3694;48.732;9.248;2023-07-31T15:02:26;24.70;68.40
7307;DHT22;3694;48.732;9.248;2023-07-31T15:04:52;25.10;68.40
7307;DHT22;3694;48.732;9.248;2023-07-31T15:07:17;24.90;66.50
7307;DHT22;3694;48.732;9.248;2023-07-31T15:09:43;24.90;67.80
7307;DHT22;3694;48.732;9.248;2023-07-31T15:12:08;24.90;66.80
7307;DHT22;3694;48.732;9.248;2023-07-31T15:14:34;24.90;67.10
7307;DHT22;3694;48.732;9.248;2023-07-31T15:17:00;24.80;66.90
7307;DHT22;3694;48.732;9.248;2023-07-31T15:19:25;24.90;66.70
7307;DHT22;3694;48.732;9.248;2023-07-31T15:21:51;25.20;67.60
7307;DHT22;3694;48.732;9.248;2023-07-31T15:24:16;25.40;66.70
7307;DHT22;3694;48.732;9.248;2023-07-31T15:26:42;25.70;65.60
7307;DHT22;3694;48.732;9.248;2023-07-31T15:29:08;26.00;65.80
7307;DHT22;3694;48.732;9.248;2023-07-31T15:31:35;26.00;65.80
7307;DHT22;3694;48.732;9.248;2023-07-31T15:34:01;25.70;64.40
7307;DHT22;3694;48.732;9.248;2023-07-31T15:36:26;25.70;65.60
7307;DHT22;3694;48.732;9.248;2023-07-31T15:38:52;25.80;65.20
7307;DHT22;3694;48.732;9.248;2023-07-31T15:41:18;25.40;64.60
7307;DHT22;3694;48.732;9.248;2023-07-31T15:43:44;25.40;65.10
7307;DHT22;3694;48.732;9.248;2023-07-31T15:46:10;24.90;65.10
7307;DHT22;3694;48.732;9.248;2023-07-31T15:48:36;24.70;65.80
7307;DHT22;3694;48.732;9.248;2023-07-31T15:51:02;24.60;66.10
7307;DHT22;3694;48.732;9.248;2023-07-31T15:53:29;24.90;65.70
7307;DHT22;3694;48.732;9.248;2023-07-31T15:55:55;25.00;66.70
7307;DHT22;3694;48.732;9.248;2023-07-31T15:58:20;25.10;67.20
7307;DHT22;3694;48.732;9.248;2023-07-31T16:00:46;25.10;67.30
7307;DHT22;3694;48.732;9.248;2023-07-31T16:03:11;25.10;67.40
7307;DHT22;3694;48.732;9.248;2023-07-31T16:05:37;25.10;67.60
7307;DHT22;3694;48.732;9.248;2023-07-31T16:08:03;25.20;67.70
7307;DHT22;3694;48.732;9.248;2023-07-31T16:10:28;25.00;67.20
7307;DHT22;3694;48.732;9.248;2023-07-31T16:12:54;24.80;67.30
7307;DHT22;3694;48.732;9.248;2023-07-31T16:15:20;24.50;67.20
7307;DHT22;3694;48.732;9.248;2023-07-31T16:17:45;24.40;67.20